Littleport, United Kingdom
Current Conditions -  °F | °C
As of 4:03 PM on Thursday 18 Dec 2014 (Local Time) from EGUN Reporting Station
Overcast Overcast  
Wind Chill: 13°   Ceiling: 1900
Heat Index: 13°   Visibility: 6mi
Dew Point: 10°   Wind: 18mph
Humidity: 82%   Direction: 240°WSW
Pressure: 29.71"   Gusts: 32mph
Location:  52.46°N, 0.31°E
Report Text: EGUN 181603Z AUTO 24016G28KT 9999 OVC019 13/10 A2971 RMK AO2 $
Loading
Personal Weather Stations






























Interactive Weather Map New forecast layout! Learn more

10-Day Weather Forecast

Advertisements
Track Severe Weather on mobile